Disclaimer

Please do not use the information listed here in-flight or in-navigation, as they are not provided to us by the airports but are provided by volunteers, so they might be outdated.

Search


Regions


Airport information page

Radio informations:
Tower (TWR) - 123.72 MHz
Director (DIR) - 133.755 MHz
OPS - 130.075 MHz
ZONE - 119.0 MHz
Ground (GND) - 121.725 MHz
CAC - 124.275 MHz
Automatic Terminal Information Service (ATIS) - 259.0 MHz
Approach (APP) - 127.25 MHz

Airport informations:
Latitude: 51° 44' 59.87" N
Longitude: 001° 35' 01.02" W
Elevation: 288 feet - 88 meters
Operating hours: 24 hour operations
Operating agency: Military
Timezone: UTC 0(+1DT) - Last Sunday in March to last Sunday in October
Fuel: JP-8, SemiKeroscene MIL Spec T-83133, without icing inhibitor

Runway information:
08/26 - 10007 x 184 feet< - >3050 x 56 meters

Recent METARs:
EGVN 202250Z 05008KT 5000 -RA OVC012 03/02 Q1005 GRN TEMPO BKN015 WHT
EGVN 202250Z 05008KT 5000 -RA OVC012 03/02 Q1005 GRN TEMPO BKN015 WHT
EGVN 202350Z 05008KT 5000 -RA BKN010 03/02 Q1005 GRN NOSIG

Airport on the map: